sensor_id;sensor_type;location;lat;lon;timestamp;P1;durP1;ratioP1;P2;durP2;ratioP2
22673;SDS011;11504;43.334;21.918;2023-06-26T00:04:13;15.0;;;14.0;;
22673;SDS011;11504;43.334;21.918;2023-06-26T00:08:49;15.0;;;14.0;;
22673;SDS011;11504;43.334;21.918;2023-06-26T00:13:26;14.0;;;13.0;;
22673;SDS011;11504;43.334;21.918;2023-06-26T00:18:03;14.0;;;13.0;;
22673;SDS011;11504;43.334;21.918;2023-06-26T00:22:40;13.0;;;12.0;;
22673;SDS011;11504;43.334;21.918;2023-06-26T00:27:17;13.0;;;12.0;;
22673;SDS011;11504;43.334;21.918;2023-06-26T00:31:53;14.0;;;13.0;;
22673;SDS011;11504;43.334;21.918;2023-06-26T00:36:30;14.0;;;13.0;;
22673;SDS011;11504;43.334;21.918;2023-06-26T00:41:06;15.0;;;14.0;;
22673;SDS011;11504;43.334;21.918;2023-06-26T00:45:42;15.0;;;14.0;;
22673;SDS011;11504;43.334;21.918;2023-06-26T00:50:20;15.0;;;14.0;;
22673;SDS011;11504;43.334;21.918;2023-06-26T00:54:57;15.0;;;14.0;;
22673;SDS011;11504;43.334;21.918;2023-06-26T00:59:35;15.0;;;14.0;;
22673;SDS011;11504;43.334;21.918;2023-06-26T01:04:12;15.0;;;14.0;;
22673;SDS011;11504;43.334;21.918;2023-06-26T01:08:51;15.0;;;14.0;;
22673;SDS011;11504;43.334;21.918;2023-06-26T01:13:31;15.0;;;14.0;;
22673;SDS011;11504;43.334;21.918;2023-06-26T01:18:13;15.0;;;14.0;;
22673;SDS011;11504;43.334;21.918;2023-06-26T01:23:14;15.0;;;14.0;;
22673;SDS011;11504;43.334;21.918;2023-06-26T01:28:14;15.0;;;14.0;;
22673;SDS011;11504;43.334;21.918;2023-06-26T01:32:56;14.0;;;14.0;;
22673;SDS011;11504;43.334;21.918;2023-06-26T01:37:37;14.0;;;14.0;;
22673;SDS011;11504;43.334;21.918;2023-06-26T01:42:14;14.0;;;13.0;;
22673;SDS011;11504;43.334;21.918;2023-06-26T01:47:01;14.0;;;13.0;;
22673;SDS011;11504;43.334;21.918;2023-06-26T01:52:05;14.0;;;13.0;;
22673;SDS011;11504;43.334;21.918;2023-06-26T01:56:55;14.0;;;13.0;;
22673;SDS011;11504;43.334;21.918;2023-06-26T02:01:35;13.0;;;13.0;;
22673;SDS011;11504;43.334;21.918;2023-06-26T02:06:12;13.0;;;13.0;;
22673;SDS011;11504;43.334;21.918;2023-06-26T02:10:48;12.0;;;12.0;;
22673;SDS011;11504;43.334;21.918;2023-06-26T02:15:24;12.0;;;12.0;;
22673;SDS011;11504;43.334;21.918;2023-06-26T02:20:01;12.0;;;12.0;;
22673;SDS011;11504;43.334;21.918;2023-06-26T02:24:38;12.0;;;12.0;;
22673;SDS011;11504;43.334;21.918;2023-06-26T02:29:15;12.0;;;12.0;;
22673;SDS011;11504;43.334;21.918;2023-06-26T02:33:52;14.0;;;13.0;;
22673;SDS011;11504;43.334;21.918;2023-06-26T02:38:28;14.0;;;13.0;;
22673;SDS011;11504;43.334;21.918;2023-06-26T02:43:07;15.0;;;14.0;;
22673;SDS011;11504;43.334;21.918;2023-06-26T02:47:43;15.0;;;14.0;;
22673;SDS011;11504;43.334;21.918;2023-06-26T02:52:20;14.0;;;14.0;;
22673;SDS011;11504;43.334;21.918;2023-06-26T02:56:57;14.0;;;14.0;;
22673;SDS011;11504;43.334;21.918;2023-06-26T03:01:33;14.0;;;13.0;;
22673;SDS011;11504;43.334;21.918;2023-06-26T03:06:10;14.0;;;13.0;;
22673;SDS011;11504;43.334;21.918;2023-06-26T03:10:47;14.0;;;13.0;;
22673;SDS011;11504;43.334;21.918;2023-06-26T03:15:23;14.0;;;13.0;;
22673;SDS011;11504;43.334;21.918;2023-06-26T03:20:00;14.0;;;13.0;;
22673;SDS011;11504;43.334;21.918;2023-06-26T03:24:37;15.0;;;13.0;;
22673;SDS011;11504;43.334;21.918;2023-06-26T03:29:13;15.0;;;13.0;;
22673;SDS011;11504;43.334;21.918;2023-06-26T03:33:50;15.0;;;13.0;;
22673;SDS011;11504;43.334;21.918;2023-06-26T03:38:26;14.0;;;13.0;;
22673;SDS011;11504;43.334;21.918;2023-06-26T03:43:02;14.0;;;13.0;;
22673;SDS011;11504;43.334;21.918;2023-06-26T03:47:39;14.0;;;13.0;;
22673;SDS011;11504;43.334;21.918;2023-06-26T03:52:15;14.0;;;13.0;;
22673;SDS011;11504;43.334;21.918;2023-06-26T03:56:52;15.0;;;14.0;;
22673;SDS011;11504;43.334;21.918;2023-06-26T04:01:28;15.0;;;14.0;;
22673;SDS011;11504;43.334;21.918;2023-06-26T04:06:05;16.0;;;15.0;;
22673;SDS011;11504;43.334;21.918;2023-06-26T04:10:42;16.0;;;15.0;;
22673;SDS011;11504;43.334;21.918;2023-06-26T04:15:19;17.0;;;16.0;;
22673;SDS011;11504;43.334;21.918;2023-06-26T04:19:55;17.0;;;16.0;;
22673;SDS011;11504;43.334;21.918;2023-06-26T04:24:32;18.0;;;17.0;;
22673;SDS011;11504;43.334;21.918;2023-06-26T04:29:09;18.0;;;17.0;;
22673;SDS011;11504;43.334;21.918;2023-06-26T04:33:46;18.0;;;17.0;;
22673;SDS011;11504;43.334;21.918;2023-06-26T04:38:23;18.0;;;18.0;;
22673;SDS011;11504;43.334;21.918;2023-06-26T04:42:59;18.0;;;18.0;;
22673;SDS011;11504;43.334;21.918;2023-06-26T04:47:35;19.0;;;18.0;;
22673;SDS011;11504;43.334;21.918;2023-06-26T04:52:11;19.0;;;18.0;;
22673;SDS011;11504;43.334;21.918;2023-06-26T04:56:48;20.0;;;18.0;;
22673;SDS011;11504;43.334;21.918;2023-06-26T05:01:24;20.0;;;18.0;;
22673;SDS011;11504;43.334;21.918;2023-06-26T05:06:00;22.0;;;19.0;;
22673;SDS011;11504;43.334;21.918;2023-06-26T05:10:37;22.0;;;19.0;;
22673;SDS011;11504;43.334;21.918;2023-06-26T05:15:13;22.0;;;20.0;;
22673;SDS011;11504;43.334;21.918;2023-06-26T05:19:50;22.0;;;20.0;;
22673;SDS011;11504;43.334;21.918;2023-06-26T05:24:28;22.0;;;20.0;;
22673;SDS011;11504;43.334;21.918;2023-06-26T05:29:10;23.0;;;21.0;;
22673;SDS011;11504;43.334;21.918;2023-06-26T05:33:49;23.0;;;21.0;;
22673;SDS011;11504;43.334;21.918;2023-06-26T05:38:39;22.0;;;20.0;;
22673;SDS011;11504;43.334;21.918;2023-06-26T05:43:19;22.0;;;20.0;;
22673;SDS011;11504;43.334;21.918;2023-06-26T05:47:59;20.0;;;19.0;;
22673;SDS011;11504;43.334;21.918;2023-06-26T05:52:38;20.0;;;19.0;;
22673;SDS011;11504;43.334;21.918;2023-06-26T05:57:19;20.0;;;20.0;;
22673;SDS011;11504;43.334;21.918;2023-06-26T06:01:55;20.0;;;20.0;;
22673;SDS011;11504;43.334;21.918;2023-06-26T06:06:31;21.0;;;20.0;;
22673;SDS011;11504;43.334;21.918;2023-06-26T06:11:07;21.0;;;20.0;;
22673;SDS011;11504;43.334;21.918;2023-06-26T06:15:44;20.0;;;19.0;;
22673;SDS011;11504;43.334;21.918;2023-06-26T06:20:20;20.0;;;19.0;;
22673;SDS011;11504;43.334;21.918;2023-06-26T06:24:56;19.0;;;18.0;;
22673;SDS011;11504;43.334;21.918;2023-06-26T06:29:33;19.0;;;18.0;;
22673;SDS011;11504;43.334;21.918;2023-06-26T06:34:09;19.0;;;18.0;;
22673;SDS011;11504;43.334;21.918;2023-06-26T06:38:46;20.0;;;19.0;;
22673;SDS011;11504;43.334;21.918;2023-06-26T06:43:22;20.0;;;19.0;;
22673;SDS011;11504;43.334;21.918;2023-06-26T06:47:59;21.0;;;20.0;;
22673;SDS011;11504;43.334;21.918;2023-06-26T06:52:37;21.0;;;20.0;;
22673;SDS011;11504;43.334;21.918;2023-06-26T06:57:16;20.0;;;20.0;;
22673;SDS011;11504;43.334;21.918;2023-06-26T07:01:52;20.0;;;20.0;;
22673;SDS011;11504;43.334;21.918;2023-06-26T07:06:29;20.0;;;19.0;;
22673;SDS011;11504;43.334;21.918;2023-06-26T07:11:06;20.0;;;19.0;;
22673;SDS011;11504;43.334;21.918;2023-06-26T07:15:42;20.0;;;18.0;;
22673;SDS011;11504;43.334;21.918;2023-06-26T07:20:18;20.0;;;18.0;;
22673;SDS011;11504;43.334;21.918;2023-06-26T07:24:54;19.0;;;18.0;;
22673;SDS011;11504;43.334;21.918;2023-06-26T07:29:31;19.0;;;18.0;;
22673;SDS011;11504;43.334;21.918;2023-06-26T07:34:07;19.0;;;18.0;;
22673;SDS011;11504;43.334;21.918;2023-06-26T07:38:44;19.0;;;18.0;;
22673;SDS011;11504;43.334;21.918;2023-06-26T07:43:20;19.0;;;18.0;;
22673;SDS011;11504;43.334;21.918;2023-06-26T07:57:12;22.0;;;21.0;;
22673;SDS011;11504;43.334;21.918;2023-06-26T08:01:55;22.0;;;21.0;;
22673;SDS011;11504;43.334;21.918;2023-06-26T08:06:34;22.0;;;21.0;;
22673;SDS011;11504;43.334;21.918;2023-06-26T08:11:10;22.0;;;21.0;;
22673;SDS011;11504;43.334;21.918;2023-06-26T08:15:47;20.0;;;18.0;;
22673;SDS011;11504;43.334;21.918;2023-06-26T08:20:24;20.0;;;18.0;;
22673;SDS011;11504;43.334;21.918;2023-06-26T08:25:03;17.0;;;16.0;;
22673;SDS011;11504;43.334;21.918;2023-06-26T08:29:41;17.0;;;16.0;;
22673;SDS011;11504;43.334;21.918;2023-06-26T08:34:17;17.0;;;16.0;;
22673;SDS011;11504;43.334;21.918;2023-06-26T08:38:54;18.0;;;18.0;;
22673;SDS011;11504;43.334;21.918;2023-06-26T08:43:30;18.0;;;18.0;;
22673;SDS011;11504;43.334;21.918;2023-06-26T08:48:09;20.0;;;19.0;;
22673;SDS011;11504;43.334;21.918;2023-06-26T08:53:08;20.0;;;19.0;;
22673;SDS011;11504;43.334;21.918;2023-06-26T08:57:51;18.0;;;16.0;;
22673;SDS011;11504;43.334;21.918;2023-06-26T09:02:28;18.0;;;16.0;;
22673;SDS011;11504;43.334;21.918;2023-06-26T09:07:07;15.0;;;14.0;;
22673;SDS011;11504;43.334;21.918;2023-06-26T09:11:44;15.0;;;14.0;;
22673;SDS011;11504;43.334;21.918;2023-06-26T09:16:26;14.0;;;14.0;;
22673;SDS011;11504;43.334;21.918;2023-06-26T09:21:09;14.0;;;14.0;;
22673;SDS011;11504;43.334;21.918;2023-06-26T09:25:47;14.0;;;13.0;;
22673;SDS011;11504;43.334;21.918;2023-06-26T09:30:25;14.0;;;13.0;;
22673;SDS011;11504;43.334;21.918;2023-06-26T09:35:04;14.0;;;12.0;;
22673;SDS011;11504;43.334;21.918;2023-06-26T09:39:42;14.0;;;12.0;;
22673;SDS011;11504;43.334;21.918;2023-06-26T09:44:19;14.0;;;12.0;;
22673;SDS011;11504;43.334;21.918;2023-06-26T09:49:05;13.0;;;12.0;;
22673;SDS011;11504;43.334;21.918;2023-06-26T09:53:42;13.0;;;12.0;;
22673;SDS011;11504;43.334;21.918;2023-06-26T09:58:20;13.0;;;12.0;;
22673;SDS011;11504;43.334;21.918;2023-06-26T10:03:00;13.0;;;12.0;;
22673;SDS011;11504;43.334;21.918;2023-06-26T10:07:39;13.0;;;13.0;;
22673;SDS011;11504;43.334;21.918;2023-06-26T10:12:28;13.0;;;13.0;;
22673;SDS011;11504;43.334;21.918;2023-06-26T10:17:17;13.0;;;12.0;;
22673;SDS011;11504;43.334;21.918;2023-06-26T10:21:59;13.0;;;12.0;;
22673;SDS011;11504;43.334;21.918;2023-06-26T10:26:49;13.0;;;12.0;;
22673;SDS011;11504;43.334;21.918;2023-06-26T10:31:40;13.0;;;12.0;;
22673;SDS011;11504;43.334;21.918;2023-06-26T10:36:31;14.0;;;12.0;;
22673;SDS011;11504;43.334;21.918;2023-06-26T10:41:13;14.0;;;12.0;;
22673;SDS011;11504;43.334;21.918;2023-06-26T10:45:55;14.0;;;13.0;;
22673;SDS011;11504;43.334;21.918;2023-06-26T10:50:34;14.0;;;13.0;;
22673;SDS011;11504;43.334;21.918;2023-06-26T10:55:15;14.0;;;12.0;;
22673;SDS011;11504;43.334;21.918;2023-06-26T11:00:11;14.0;;;12.0;;
22673;SDS011;11504;43.334;21.918;2023-06-26T11:04:59;13.0;;;12.0;;
22673;SDS011;11504;43.334;21.918;2023-06-26T11:09:58;13.0;;;12.0;;
22673;SDS011;11504;43.334;21.918;2023-06-26T11:14:37;13.0;;;12.0;;
22673;SDS011;11504;43.334;21.918;2023-06-26T11:19:18;12.0;;;12.0;;
22673;SDS011;11504;43.334;21.918;2023-06-26T11:24:00;12.0;;;12.0;;
22673;SDS011;11504;43.334;21.918;2023-06-26T11:28:37;12.0;;;11.0;;
22673;SDS011;11504;43.334;21.918;2023-06-26T11:33:13;12.0;;;11.0;;
22673;SDS011;11504;43.334;21.918;2023-06-26T11:37:49;12.0;;;12.0;;
22673;SDS011;11504;43.334;21.918;2023-06-26T11:42:25;12.0;;;12.0;;
22673;SDS011;11504;43.334;21.918;2023-06-26T11:47:06;12.0;;;12.0;;
22673;SDS011;11504;43.334;21.918;2023-06-26T11:51:43;12.0;;;12.0;;
22673;SDS011;11504;43.334;21.918;2023-06-26T11:56:20;12.0;;;12.0;;
22673;SDS011;11504;43.334;21.918;2023-06-26T12:00:57;12.0;;;12.0;;
22673;SDS011;11504;43.334;21.918;2023-06-26T12:05:34;13.0;;;12.0;;
22673;SDS011;11504;43.334;21.918;2023-06-26T12:10:14;13.0;;;12.0;;
22673;SDS011;11504;43.334;21.918;2023-06-26T12:14:56;13.0;;;12.0;;
22673;SDS011;11504;43.334;21.918;2023-06-26T12:19:37;13.0;;;12.0;;
22673;SDS011;11504;43.334;21.918;2023-06-26T12:24:23;13.0;;;12.0;;
22673;SDS011;11504;43.334;21.918;2023-06-26T12:29:06;13.0;;;12.0;;
22673;SDS011;11504;43.334;21.918;2023-06-26T12:33:45;13.0;;;12.0;;
22673;SDS011;11504;43.334;21.918;2023-06-26T12:38:21;12.0;;;12.0;;
22673;SDS011;11504;43.334;21.918;2023-06-26T12:42:58;12.0;;;12.0;;
22673;SDS011;11504;43.334;21.918;2023-06-26T12:47:35;11.0;;;11.0;;
22673;SDS011;11504;43.334;21.918;2023-06-26T12:52:16;11.0;;;11.0;;
22673;SDS011;11504;43.334;21.918;2023-06-26T12:56:53;14.0;;;13.0;;
22673;SDS011;11504;43.334;21.918;2023-06-26T13:01:30;14.0;;;13.0;;
22673;SDS011;11504;43.334;21.918;2023-06-26T13:06:07;16.0;;;15.0;;
22673;SDS011;11504;43.334;21.918;2023-06-26T13:10:43;16.0;;;15.0;;
22673;SDS011;11504;43.334;21.918;2023-06-26T13:15:20;15.0;;;14.0;;
22673;SDS011;11504;43.334;21.918;2023-06-26T13:19:57;15.0;;;14.0;;
22673;SDS011;11504;43.334;21.918;2023-06-26T13:24:34;15.0;;;14.0;;
22673;SDS011;11504;43.334;21.918;2023-06-26T13:29:11;14.0;;;13.0;;
22673;SDS011;11504;43.334;21.918;2023-06-26T13:33:48;14.0;;;13.0;;
22673;SDS011;11504;43.334;21.918;2023-06-26T13:38:25;14.0;;;14.0;;
22673;SDS011;11504;43.334;21.918;2023-06-26T13:43:02;14.0;;;14.0;;
22673;SDS011;11504;43.334;21.918;2023-06-26T13:47:39;15.0;;;14.0;;
22673;SDS011;11504;43.334;21.918;2023-06-26T13:52:15;15.0;;;14.0;;
22673;SDS011;11504;43.334;21.918;2023-06-26T13:56:52;16.0;;;16.0;;
22673;SDS011;11504;43.334;21.918;2023-06-26T14:01:28;16.0;;;16.0;;
22673;SDS011;11504;43.334;21.918;2023-06-26T14:06:05;18.0;;;17.0;;
22673;SDS011;11504;43.334;21.918;2023-06-26T14:10:42;18.0;;;17.0;;
22673;SDS011;11504;43.334;21.918;2023-06-26T14:15:18;17.0;;;16.0;;
22673;SDS011;11504;43.334;21.918;2023-06-26T14:19:55;17.0;;;16.0;;
22673;SDS011;11504;43.334;21.918;2023-06-26T14:24:31;17.0;;;16.0;;
22673;SDS011;11504;43.334;21.918;2023-06-26T14:29:08;16.0;;;15.0;;
22673;SDS011;11504;43.334;21.918;2023-06-26T14:33:45;16.0;;;15.0;;
22673;SDS011;11504;43.334;21.918;2023-06-26T14:38:22;16.0;;;15.0;;
22673;SDS011;11504;43.334;21.918;2023-06-26T14:42:58;16.0;;;15.0;;
22673;SDS011;11504;43.334;21.918;2023-06-26T14:47:35;16.0;;;15.0;;
22673;SDS011;11504;43.334;21.918;2023-06-26T14:52:12;16.0;;;15.0;;
22673;SDS011;11504;43.334;21.918;2023-06-26T14:56:48;14.0;;;14.0;;
22673;SDS011;11504;43.334;21.918;2023-06-26T15:01:25;14.0;;;14.0;;
22673;SDS011;11504;43.334;21.918;2023-06-26T15:06:02;13.0;;;13.0;;
22673;SDS011;11504;43.334;21.918;2023-06-26T15:10:39;13.0;;;13.0;;
22673;SDS011;11504;43.334;21.918;2023-06-26T15:15:15;14.0;;;13.0;;
22673;SDS011;11504;43.334;21.918;2023-06-26T15:19:52;14.0;;;13.0;;
22673;SDS011;11504;43.334;21.918;2023-06-26T15:24:28;14.0;;;13.0;;
22673;SDS011;11504;43.334;21.918;2023-06-26T15:29:04;14.0;;;13.0;;
22673;SDS011;11504;43.334;21.918;2023-06-26T15:33:41;14.0;;;13.0;;
22673;SDS011;11504;43.334;21.918;2023-06-26T15:38:17;14.0;;;14.0;;
22673;SDS011;11504;43.334;21.918;2023-06-26T15:42:53;14.0;;;14.0;;
22673;SDS011;11504;43.334;21.918;2023-06-26T15:47:30;14.0;;;14.0;;
22673;SDS011;11504;43.334;21.918;2023-06-26T15:52:07;14.0;;;14.0;;
22673;SDS011;11504;43.334;21.918;2023-06-26T15:56:44;13.0;;;13.0;;
22673;SDS011;11504;43.334;21.918;2023-06-26T16:01:21;13.0;;;13.0;;
22673;SDS011;11504;43.334;21.918;2023-06-26T16:05:58;12.0;;;12.0;;
22673;SDS011;11504;43.334;21.918;2023-06-26T16:10:34;12.0;;;12.0;;
22673;SDS011;11504;43.334;21.918;2023-06-26T16:15:11;12.0;;;12.0;;
22673;SDS011;11504;43.334;21.918;2023-06-26T16:19:48;12.0;;;12.0;;
22673;SDS011;11504;43.334;21.918;2023-06-26T16:24:25;12.0;;;12.0;;
22673;SDS011;11504;43.334;21.918;2023-06-26T16:29:02;11.0;;;11.0;;
22673;SDS011;11504;43.334;21.918;2023-06-26T16:33:39;11.0;;;11.0;;
22673;SDS011;11504;43.334;21.918;2023-06-26T16:38:15;14.0;;;13.0;;
22673;SDS011;11504;43.334;21.918;2023-06-26T16:42:52;14.0;;;13.0;;
22673;SDS011;11504;43.334;21.918;2023-06-26T16:47:29;16.0;;;15.0;;
22673;SDS011;11504;43.334;21.918;2023-06-26T16:52:07;16.0;;;15.0;;
22673;SDS011;11504;43.334;21.918;2023-06-26T16:56:44;14.0;;;14.0;;
22673;SDS011;11504;43.334;21.918;2023-06-26T17:01:20;14.0;;;14.0;;
22673;SDS011;11504;43.334;21.918;2023-06-26T17:05:57;13.0;;;12.0;;
22673;SDS011;11504;43.334;21.918;2023-06-26T17:10:34;13.0;;;12.0;;
22673;SDS011;11504;43.334;21.918;2023-06-26T17:15:12;13.0;;;12.0;;
22673;SDS011;11504;43.334;21.918;2023-06-26T17:19:49;14.0;;;14.0;;
22673;SDS011;11504;43.334;21.918;2023-06-26T17:24:26;14.0;;;14.0;;
22673;SDS011;11504;43.334;21.918;2023-06-26T17:29:02;16.0;;;15.0;;
22673;SDS011;11504;43.334;21.918;2023-06-26T17:33:39;16.0;;;15.0;;
22673;SDS011;11504;43.334;21.918;2023-06-26T17:38:16;18.0;;;18.0;;
22673;SDS011;11504;43.334;21.918;2023-06-26T17:42:52;18.0;;;18.0;;
22673;SDS011;11504;43.334;21.918;2023-06-26T17:47:29;21.0;;;20.0;;
22673;SDS011;11504;43.334;21.918;2023-06-26T17:52:07;21.0;;;20.0;;
22673;SDS011;11504;43.334;21.918;2023-06-26T17:56:45;20.0;;;19.0;;
22673;SDS011;11504;43.334;21.918;2023-06-26T18:01:21;20.0;;;19.0;;
22673;SDS011;11504;43.334;21.918;2023-06-26T18:05:57;19.0;;;18.0;;
22673;SDS011;11504;43.334;21.918;2023-06-26T18:10:33;19.0;;;18.0;;
22673;SDS011;11504;43.334;21.918;2023-06-26T18:15:10;19.0;;;18.0;;
22673;SDS011;11504;43.334;21.918;2023-06-26T18:19:46;30.0;;;28.0;;
22673;SDS011;11504;43.334;21.918;2023-06-26T18:24:22;30.0;;;28.0;;
22673;SDS011;11504;43.334;21.918;2023-06-26T18:28:59;42.0;;;39.0;;
22673;SDS011;11504;43.334;21.918;2023-06-26T18:33:36;42.0;;;39.0;;
22673;SDS011;11504;43.334;21.918;2023-06-26T18:38:13;32.0;;;30.0;;
22673;SDS011;11504;43.334;21.918;2023-06-26T18:42:50;32.0;;;30.0;;
22673;SDS011;11504;43.334;21.918;2023-06-26T18:47:26;21.0;;;20.0;;
22673;SDS011;11504;43.334;21.918;2023-06-26T18:52:04;21.0;;;20.0;;
22673;SDS011;11504;43.334;21.918;2023-06-26T18:56:42;18.0;;;18.0;;
22673;SDS011;11504;43.334;21.918;2023-06-26T19:01:19;18.0;;;18.0;;
22673;SDS011;11504;43.334;21.918;2023-06-26T19:05:56;16.0;;;16.0;;
22673;SDS011;11504;43.334;21.918;2023-06-26T19:10:33;16.0;;;16.0;;
22673;SDS011;11504;43.334;21.918;2023-06-26T19:15:10;16.0;;;16.0;;
22673;SDS011;11504;43.334;21.918;2023-06-26T19:19:47;16.0;;;15.0;;
22673;SDS011;11504;43.334;21.918;2023-06-26T19:24:23;16.0;;;15.0;;
22673;SDS011;11504;43.334;21.918;2023-06-26T19:29:01;15.0;;;14.0;;
22673;SDS011;11504;43.334;21.918;2023-06-26T19:33:38;15.0;;;14.0;;
22673;SDS011;11504;43.334;21.918;2023-06-26T19:38:14;16.0;;;14.0;;
22673;SDS011;11504;43.334;21.918;2023-06-26T19:42:50;16.0;;;14.0;;
22673;SDS011;11504;43.334;21.918;2023-06-26T19:47:27;16.0;;;15.0;;
22673;SDS011;11504;43.334;21.918;2023-06-26T19:52:05;16.0;;;15.0;;
22673;SDS011;11504;43.334;21.918;2023-06-26T19:56:43;18.0;;;17.0;;
22673;SDS011;11504;43.334;21.918;2023-06-26T20:01:20;18.0;;;17.0;;
22673;SDS011;11504;43.334;21.918;2023-06-26T20:05:57;20.0;;;19.0;;
22673;SDS011;11504;43.334;21.918;2023-06-26T20:10:35;20.0;;;19.0;;
22673;SDS011;11504;43.334;21.918;2023-06-26T20:15:12;20.0;;;19.0;;
22673;SDS011;11504;43.334;21.918;2023-06-26T20:19:49;20.0;;;19.0;;
22673;SDS011;11504;43.334;21.918;2023-06-26T20:24:26;20.0;;;19.0;;
22673;SDS011;11504;43.334;21.918;2023-06-26T20:29:02;20.0;;;19.0;;
22673;SDS011;11504;43.334;21.918;2023-06-26T20:33:39;20.0;;;19.0;;
22673;SDS011;11504;43.334;21.918;2023-06-26T20:38:16;18.0;;;18.0;;
22673;SDS011;11504;43.334;21.918;2023-06-26T20:42:53;18.0;;;18.0;;
22673;SDS011;11504;43.334;21.918;2023-06-26T20:47:32;17.0;;;16.0;;
22673;SDS011;11504;43.334;21.918;2023-06-26T20:52:12;17.0;;;16.0;;
22673;SDS011;11504;43.334;21.918;2023-06-26T20:56:53;17.0;;;16.0;;
22673;SDS011;11504;43.334;21.918;2023-06-26T21:01:29;17.0;;;16.0;;
22673;SDS011;11504;43.334;21.918;2023-06-26T21:06:06;17.0;;;16.0;;
22673;SDS011;11504;43.334;21.918;2023-06-26T21:10:42;17.0;;;16.0;;
22673;SDS011;11504;43.334;21.918;2023-06-26T21:15:19;17.0;;;16.0;;
22673;SDS011;11504;43.334;21.918;2023-06-26T21:19:56;17.0;;;16.0;;
22673;SDS011;11504;43.334;21.918;2023-06-26T21:24:33;17.0;;;16.0;;
22673;SDS011;11504;43.334;21.918;2023-06-26T21:29:09;17.0;;;16.0;;
22673;SDS011;11504;43.334;21.918;2023-06-26T21:33:46;17.0;;;16.0;;
22673;SDS011;11504;43.334;21.918;2023-06-26T21:38:23;17.0;;;16.0;;
22673;SDS011;11504;43.334;21.918;2023-06-26T21:43:01;17.0;;;16.0;;
22673;SDS011;11504;43.334;21.918;2023-06-26T21:47:38;17.0;;;16.0;;
22673;SDS011;11504;43.334;21.918;2023-06-26T21:52:15;17.0;;;16.0;;
22673;SDS011;11504;43.334;21.918;2023-06-26T21:56:52;17.0;;;16.0;;
22673;SDS011;11504;43.334;21.918;2023-06-26T22:01:29;17.0;;;16.0;;
22673;SDS011;11504;43.334;21.918;2023-06-26T22:06:05;17.0;;;16.0;;
22673;SDS011;11504;43.334;21.918;2023-06-26T22:10:42;17.0;;;16.0;;
22673;SDS011;11504;43.334;21.918;2023-06-26T22:15:18;17.0;;;16.0;;
22673;SDS011;11504;43.334;21.918;2023-06-26T22:19:55;18.0;;;17.0;;
22673;SDS011;11504;43.334;21.918;2023-06-26T22:24:32;18.0;;;17.0;;
22673;SDS011;11504;43.334;21.918;2023-06-26T22:29:09;19.0;;;18.0;;
22673;SDS011;11504;43.334;21.918;2023-06-26T22:33:46;19.0;;;18.0;;
22673;SDS011;11504;43.334;21.918;2023-06-26T22:38:22;19.0;;;18.0;;
22673;SDS011;11504;43.334;21.918;2023-06-26T22:42:59;19.0;;;18.0;;
22673;SDS011;11504;43.334;21.918;2023-06-26T22:47:38;19.0;;;18.0;;
22673;SDS011;11504;43.334;21.918;2023-06-26T22:52:20;19.0;;;18.0;;
22673;SDS011;11504;43.334;21.918;2023-06-26T22:56:58;16.0;;;16.0;;
22673;SDS011;11504;43.334;21.918;2023-06-26T23:01:35;16.0;;;16.0;;
22673;SDS011;11504;43.334;21.918;2023-06-26T23:06:11;14.0;;;14.0;;
22673;SDS011;11504;43.334;21.918;2023-06-26T23:10:48;14.0;;;14.0;;
22673;SDS011;11504;43.334;21.918;2023-06-26T23:15:24;14.0;;;14.0;;
22673;SDS011;11504;43.334;21.918;2023-06-26T23:20:01;16.0;;;15.0;;
22673;SDS011;11504;43.334;21.918;2023-06-26T23:24:38;16.0;;;15.0;;
22673;SDS011;11504;43.334;21.918;2023-06-26T23:29:14;17.0;;;16.0;;
22673;SDS011;11504;43.334;21.918;2023-06-26T23:33:51;17.0;;;16.0;;
22673;SDS011;11504;43.334;21.918;2023-06-26T23:38:27;18.0;;;16.0;;
22673;SDS011;11504;43.334;21.918;2023-06-26T23:43:04;18.0;;;16.0;;
22673;SDS011;11504;43.334;21.918;2023-06-26T23:47:40;18.0;;;17.0;;
22673;SDS011;11504;43.334;21.918;2023-06-26T23:52:17;18.0;;;17.0;;
22673;SDS011;11504;43.334;21.918;2023-06-26T23:56:54;17.0;;;16.0;;
